Time;durP1;ratioP1;P1;durP2;ratioP2;P2;SDS_P1;SDS_P2;PMS_P1;PMS_P2;Temp;Humidity;BMP_temperature;BMP_pressure;BME280_temperature;BME280_humidity;BME280_pressure;Samples;Min_cycle;Max_cycle;Signal;HPM_P1;HPM_P2
2023/08/11 00:01:50;;;;;;;4.72;3.78;;;14.90;99.90;;;;;;5066566;28;20072;-63
2023/08/11 00:04:22;;;;;;;4.93;3.92;;;14.90;99.90;;;;;;5073048;28;20127;-63
2023/08/11 00:06:54;;;;;;;6.25;4.10;;;14.90;99.90;;;;;;5064847;28;20048;-62
2023/08/11 00:09:26;;;;;;;4.80;4.23;;;15.00;99.90;;;;;;5068485;28;20044;-63
2023/08/11 00:11:58;;;;;;;4.57;3.97;;;15.00;99.90;;;;;;5055150;28;20038;-62
2023/08/11 00:14:31;;;;;;;5.20;4.38;;;15.00;99.90;;;;;;5070716;28;20123;-63
2023/08/11 00:17:03;;;;;;;5.33;4.10;;;15.00;99.90;;;;;;5069704;28;20079;-63
2023/08/11 00:19:35;;;;;;;4.85;4.32;;;15.00;99.90;;;;;;5054637;28;20306;-63
2023/08/11 00:22:07;;;;;;;6.60;4.57;;;15.00;99.90;;;;;;5040308;28;20152;-63
2023/08/11 00:24:39;;;;;;;5.68;4.47;;;14.90;99.90;;;;;;5070482;28;20450;-63
2023/08/11 00:27:11;;;;;;;5.50;4.13;;;14.90;99.90;;;;;;5056381;28;20098;-63
2023/08/11 00:29:42;;;;;;;5.90;4.88;;;14.90;99.90;;;;;;5051053;28;20102;-62
2023/08/11 00:32:14;;;;;;;4.88;4.30;;;14.80;99.90;;;;;;5061391;28;20579;-63
2023/08/11 00:34:41;;;;;;;5.15;4.65;;;14.80;99.90;;;;;;5048109;28;20052;-63
2023/08/11 00:37:13;;;;;;;6.20;5.60;;;14.80;99.90;;;;;;5050558;28;20104;-62
2023/08/11 00:39:45;;;;;;;5.28;4.78;;;14.70;99.90;;;;;;5053762;28;20037;-63
2023/08/11 00:42:18;;;;;;;7.00;4.60;;;14.70;99.90;;;;;;5052638;28;20047;-63
2023/08/11 00:44:50;;;;;;;6.17;4.10;;;14.70;99.90;;;;;;5045818;28;20064;-63
2023/08/11 00:47:17;;;;;;;5.03;3.85;;;14.60;99.90;;;;;;5055613;28;20286;-63
2023/08/11 00:49:50;;;;;;;5.15;3.75;;;14.70;99.90;;;;;;5058393;28;20123;-63
2023/08/11 00:52:22;;;;;;;7.63;4.05;;;14.70;99.90;;;;;;5049200;28;20045;-63
2023/08/11 00:54:56;;;;;;;10.95;4.47;;;14.60;99.90;;;;;;5066037;28;20040;-62
2023/08/11 00:57:28;;;;;;;9.23;4.55;;;14.60;99.90;;;;;;5059280;28;20044;-63
2023/08/11 01:00:11;;;;;;;4.68;4.03;;;14.50;99.90;;;;;;5071872;28;20074;-63
2023/08/11 01:02:45;;;;;;;7.15;4.65;;;14.60;99.90;;;;;;5036363;28;20506;-63
2023/08/11 01:05:19;;;;;;;6.47;4.13;;;14.50;99.90;;;;;;5052695;28;20131;-63
2023/08/11 01:08:21;;;;;;;5.82;5.07;;;14.60;99.90;;;;;;5052723;28;20049;-63
2023/08/11 01:11:28;;;;;;;6.72;4.70;;;14.50;99.90;;;;;;5071991;28;20032;-63
2023/08/11 01:14:11;;;;;;;5.20;4.70;;;14.50;99.90;;;;;;5051298;28;20411;-63
2023/08/11 01:16:50;;;;;;;4.75;4.28;;;14.50;99.90;;;;;;5046707;28;20063;-63
2023/08/11 01:19:32;;;;;;;5.22;4.47;;;14.50;99.90;;;;;;5046980;28;20036;-63
2023/08/11 01:22:03;;;;;;;6.05;4.28;;;14.50;99.90;;;;;;5071584;28;20065;-63
2023/08/11 01:24:35;;;;;;;4.90;4.35;;;14.40;99.90;;;;;;5051771;28;20043;-63
2023/08/11 01:27:07;;;;;;;5.32;4.30;;;14.40;99.90;;;;;;5073117;28;20043;-63
2023/08/11 01:29:39;;;;;;;4.72;4.10;;;14.40;99.90;;;;;;5051235;28;20419;-63
2023/08/11 01:32:12;;;;;;;4.43;3.63;;;14.30;99.90;;;;;;5050951;28;20052;-63
2023/08/11 01:34:39;;;;;;;4.90;4.40;;;14.30;99.90;;;;;;5053233;28;20033;-63
2023/08/11 01:37:12;;;;;;;5.65;4.28;;;14.20;99.90;;;;;;5053271;28;20036;-63
2023/08/11 01:39:44;;;;;;;5.28;4.22;;;14.20;99.90;;;;;;5045163;28;20037;-62
2023/08/11 01:42:18;;;;;;;5.85;4.45;;;14.20;99.90;;;;;;5067172;28;20079;-63
2023/08/11 01:44:52;;;;;;;5.65;4.78;;;14.30;99.90;;;;;;5057995;28;20060;-62
2023/08/11 01:47:24;;;;;;;6.10;4.38;;;14.30;99.90;;;;;;5069700;28;20176;-63
2023/08/11 01:49:57;;;;;;;5.00;4.50;;;14.30;99.90;;;;;;5052750;28;20041;-63
2023/08/11 01:52:37;;;;;;;4.80;4.25;;;14.20;99.90;;;;;;5049960;28;20049;-62
2023/08/11 01:55:10;;;;;;;4.90;4.40;;;14.30;99.90;;;;;;5046634;28;20105;-63
2023/08/11 01:57:42;;;;;;;7.50;4.30;;;14.30;99.90;;;;;;5039289;28;20055;-62
2023/08/11 02:00:16;;;;;;;5.22;4.00;;;14.30;99.90;;;;;;5054422;28;20048;-63
2023/08/11 02:02:48;;;;;;;6.63;3.92;;;14.30;99.90;;;;;;5062302;28;20048;-64
2023/08/11 02:05:21;;;;;;;5.43;4.18;;;14.30;99.90;;;;;;5053885;28;20454;-62
2023/08/11 02:07:55;;;;;;;4.35;3.95;;;14.20;99.90;;;;;;5047812;28;20044;-63
2023/08/11 02:10:28;;;;;;;5.32;4.20;;;14.20;99.90;;;;;;5050802;28;20058;-63
2023/08/11 02:12:55;;;;;;;5.30;3.90;;;14.20;99.90;;;;;;5057264;28;20044;-63
2023/08/11 02:15:27;;;;;;;5.63;4.03;;;14.10;99.90;;;;;;5066492;28;20054;-63
2023/08/11 02:17:59;;;;;;;5.03;4.10;;;14.10;99.90;;;;;;5068021;28;20041;-63
2023/08/11 02:20:32;;;;;;;5.30;4.30;;;14.10;99.90;;;;;;5054037;28;20033;-63
2023/08/11 02:23:04;;;;;;;4.70;3.83;;;14.00;99.90;;;;;;5066827;28;20434;-62
2023/08/11 02:25:38;;;;;;;5.10;4.60;;;14.00;99.90;;;;;;5050991;28;20068;-62
2023/08/11 02:28:10;;;;;;;4.53;3.80;;;14.00;99.90;;;;;;5052060;28;20286;-63
2023/08/11 02:30:42;;;;;;;5.22;4.20;;;13.90;99.90;;;;;;5053021;28;20040;-62
2023/08/11 02:33:18;;;;;;;5.20;4.53;;;13.90;99.90;;;;;;5066823;28;20040;-62
2023/08/11 02:35:49;;;;;;;5.50;4.50;;;13.80;99.90;;;;;;5051637;28;20098;-63
2023/08/11 02:38:21;;;;;;;4.13;3.72;;;13.70;99.90;;;;;;5065921;28;20036;-63
2023/08/11 02:40:55;;;;;;;4.68;3.67;;;13.70;99.90;;;;;;5066546;28;20037;-63
2023/08/11 02:43:27;;;;;;;4.03;3.63;;;13.70;99.90;;;;;;5069814;28;20037;-62
2023/08/11 02:46:01;;;;;;;4.75;3.97;;;13.70;99.90;;;;;;5053385;28;20034;-63
2023/08/11 02:48:36;;;;;;;5.22;4.38;;;13.70;99.90;;;;;;5063981;28;20044;-63
2023/08/11 02:51:08;;;;;;;6.05;4.40;;;13.60;99.90;;;;;;5070701;28;20050;-62
2023/08/11 02:53:40;;;;;;;7.13;4.20;;;13.60;99.90;;;;;;5060999;28;20032;-63
2023/08/11 02:56:15;;;;;;;4.70;4.20;;;13.60;99.90;;;;;;5057205;28;20127;-63
2023/08/11 02:58:46;;;;;;;4.63;4.05;;;13.50;99.90;;;;;;5054942;28;20090;-62
2023/08/11 03:01:18;;;;;;;4.10;3.67;;;13.50;99.90;;;;;;5043368;28;20073;-63
2023/08/11 03:03:50;;;;;;;5.03;4.25;;;13.50;99.90;;;;;;5067800;28;20541;-63
2023/08/11 03:06:22;;;;;;;10.38;4.55;;;13.50;99.90;;;;;;5053231;28;20043;-63
2023/08/11 03:08:54;;;;;;;7.07;4.38;;;13.50;99.90;;;;;;5056680;28;20059;-64
2023/08/11 03:11:26;;;;;;;9.73;4.88;;;13.40;99.90;;;;;;5057374;28;20047;-63
2023/08/11 03:13:57;;;;;;;9.60;4.97;;;13.40;99.90;;;;;;5040703;28;20044;-62
2023/08/11 03:16:31;;;;;;;5.25;4.10;;;13.40;99.90;;;;;;5042072;28;20048;-63
2023/08/11 03:18:58;;;;;;;4.95;4.13;;;13.40;99.90;;;;;;5053481;28;20040;-63
2023/08/11 03:21:30;;;;;;;14.32;5.10;;;13.30;99.90;;;;;;5056491;28;20409;-63
2023/08/11 03:24:02;;;;;;;5.70;4.63;;;13.40;99.90;;;;;;5052674;28;20044;-62
2023/08/11 03:26:34;;;;;;;5.00;3.85;;;13.30;99.90;;;;;;5043879;28;20090;-63
2023/08/11 03:29:06;;;;;;;8.25;4.30;;;13.30;99.90;;;;;;5056117;28;20053;-63
2023/08/11 03:31:39;;;;;;;8.43;4.55;;;13.30;99.90;;;;;;5055608;28;20051;-63
2023/08/11 03:34:13;;;;;;;;;;;13.30;99.90;;;;;;5071515;28;20110;-63
2023/08/11 03:36:45;;;;;;;5.35;4.85;;;13.20;99.90;;;;;;5071804;28;20036;-63
2023/08/11 03:39:16;;;;;;;5.63;4.20;;;13.10;99.90;;;;;;5039378;28;20051;-63
2023/08/11 03:41:49;;;;;;;5.63;3.90;;;13.10;99.90;;;;;;5056720;28;20041;-62
2023/08/11 03:44:22;;;;;;;;;;;13.20;99.90;;;;;;5055164;28;20574;-63
2023/08/11 03:46:54;;;;;;;5.70;4.25;;;13.20;99.90;;;;;;5055338;28;20072;-63
2023/08/11 03:49:26;;;;;;;7.65;4.53;;;13.20;99.90;;;;;;5056651;28;20051;-63
2023/08/11 03:51:53;;;;;;;5.70;4.40;;;13.20;99.90;;;;;;5049664;28;20091;-63
2023/08/11 03:54:20;;;;;;;5.97;4.30;;;13.20;99.90;;;;;;5033739;28;20543;-62
2023/08/11 03:56:52;;;;;;;4.78;4.03;;;13.20;99.90;;;;;;5057504;28;20420;-63
2023/08/11 03:59:24;;;;;;;5.70;4.20;;;13.20;99.90;;;;;;5055535;28;20116;-63
2023/08/11 04:01:56;;;;;;;6.68;5.00;;;13.20;99.90;;;;;;5057003;28;20116;-63
2023/08/11 04:04:28;;;;;;;5.32;4.00;;;13.20;99.90;;;;;;5053078;28;20115;-63
2023/08/11 04:07:00;;;;;;;4.15;3.75;;;13.20;99.90;;;;;;5052956;28;20512;-63
2023/08/11 04:09:34;;;;;;;4.78;4.20;;;13.20;99.90;;;;;;5052102;28;20053;-63
2023/08/11 04:12:07;;;;;;;5.28;4.32;;;13.20;99.90;;;;;;5066688;28;20033;-63
2023/08/11 04:14:38;;;;;;;5.85;4.20;;;13.20;99.90;;;;;;5056294;28;20040;-63
2023/08/11 04:17:13;;;;;;;4.55;4.15;;;13.20;99.90;;;;;;5053283;28;20116;-63
2023/08/11 04:19:46;;;;;;;5.18;4.68;;;13.20;99.90;;;;;;5061964;28;20546;-63
2023/08/11 04:22:18;;;;;;;5.18;4.32;;;13.20;99.90;;;;;;5052303;28;20066;-62
2023/08/11 04:24:50;;;;;;;7.97;5.20;;;13.10;99.90;;;;;;5069233;28;20042;-63
2023/08/11 04:27:22;;;;;;;6.00;5.00;;;13.10;99.90;;;;;;5055887;28;20467;-63
2023/08/11 04:29:54;;;;;;;5.28;3.95;;;13.10;99.90;;;;;;5069791;28;20044;-63
2023/08/11 04:32:26;;;;;;;4.70;4.25;;;13.10;99.90;;;;;;5055295;28;20052;-62
2023/08/11 04:34:58;;;;;;;8.07;5.80;;;13.10;99.90;;;;;;5035759;28;20094;-62
2023/08/11 04:37:30;;;;;;;6.70;4.95;;;13.10;99.90;;;;;;5048451;28;20589;-62
2023/08/11 04:40:08;;;;;;;9.60;6.10;;;13.10;99.90;;;;;;5055597;28;20061;-62
2023/08/11 04:42:42;;;;;;;10.18;5.68;;;13.10;99.90;;;;;;5051168;28;20106;-62
2023/08/11 04:45:12;;;;;;;6.68;5.90;;;13.10;99.90;;;;;;5054664;28;20119;-62
2023/08/11 04:47:44;;;;;;;6.72;5.35;;;13.10;99.90;;;;;;5069133;28;20039;-62
2023/08/11 04:50:19;;;;;;;5.65;4.88;;;13.10;99.90;;;;;;5038839;28;20496;-62
2023/08/11 04:52:55;;;;;;;8.93;4.82;;;13.10;99.90;;;;;;5053847;28;20048;-62
2023/08/11 04:55:27;;;;;;;7.57;4.45;;;13.10;99.90;;;;;;5063035;28;20045;-62
2023/08/11 04:58:01;;;;;;;5.07;4.00;;;13.10;99.90;;;;;;5052362;28;20048;-62
2023/08/11 05:00:34;;;;;;;4.80;4.15;;;13.10;99.90;;;;;;5068391;28;20045;-62
2023/08/11 05:03:06;;;;;;;8.32;4.20;;;13.20;99.90;;;;;;5046680;28;20666;-63
2023/08/11 05:05:37;;;;;;;4.05;3.65;;;13.20;99.90;;;;;;5058313;28;20037;-62
2023/08/11 05:08:09;;;;;;;4.75;4.05;;;13.20;99.90;;;;;;5070025;28;20044;-62
2023/08/11 05:10:41;;;;;;;6.75;4.05;;;13.20;99.90;;;;;;5052456;28;20041;-62
2023/08/11 05:13:13;;;;;;;10.05;4.35;;;13.20;99.90;;;;;;5070919;28;20059;-62
2023/08/11 05:15:44;;;;;;;5.95;4.20;;;13.20;99.90;;;;;;5054659;28;20403;-62
2023/08/11 05:18:16;;;;;;;8.25;4.45;;;13.30;99.90;;;;;;5054911;28;20047;-62
2023/08/11 05:20:48;;;;;;;11.20;5.82;;;13.30;99.90;;;;;;5051373;28;20044;-62
2023/08/11 05:23:20;;;;;;;8.07;5.65;;;13.30;99.90;;;;;;5065899;28;20505;-62
2023/08/11 05:25:53;;;;;;;9.13;5.97;;;13.30;99.90;;;;;;5053033;28;20504;-62
2023/08/11 05:28:25;;;;;;;7.18;5.28;;;13.40;99.90;;;;;;5055313;28;20040;-62
2023/08/11 05:30:56;;;;;;;7.28;6.28;;;13.40;99.90;;;;;;5069368;28;20051;-62
2023/08/11 05:33:28;;;;;;;8.52;5.70;;;13.50;99.90;;;;;;5048369;28;20041;-62
2023/08/11 05:36:00;;;;;;;6.90;5.15;;;13.50;99.90;;;;;;5054038;28;20419;-62
2023/08/11 05:38:32;;;;;;;6.97;5.75;;;13.60;99.90;;;;;;5047428;28;20052;-62
2023/08/11 05:40:59;;;;;;;9.98;5.45;;;13.60;99.90;;;;;;5070537;28;20453;-62
2023/08/11 05:43:31;;;;;;;8.18;6.43;;;13.60;99.90;;;;;;5071771;28;20127;-62
2023/08/11 05:45:58;;;;;;;7.10;6.40;;;13.70;99.90;;;;;;5066799;28;20040;-62
2023/08/11 05:48:30;;;;;;;6.80;5.60;;;13.70;99.90;;;;;;5055127;28;20576;-62
2023/08/11 05:51:03;;;;;;;6.85;6.15;;;13.80;99.90;;;;;;5050995;28;20045;-63
2023/08/11 05:53:35;;;;;;;8.98;6.20;;;13.90;99.90;;;;;;5069525;28;20046;-62
2023/08/11 05:56:06;;;;;;;8.05;6.47;;;13.90;99.90;;;;;;5069450;28;20047;-62
2023/08/11 05:58:33;;;;;;;8.40;6.97;;;14.00;99.90;;;;;;5070919;28;20048;-62
2023/08/11 06:01:05;;;;;;;7.30;6.35;;;14.10;99.90;;;;;;5068605;28;20571;-62
2023/08/11 06:03:37;;;;;;;6.55;5.88;;;14.10;99.90;;;;;;5053646;28;20044;-65
2023/08/11 06:06:09;;;;;;;8.82;6.53;;;14.20;99.90;;;;;;5055632;28;20044;-65
2023/08/11 06:08:41;;;;;;;7.63;6.82;;;14.30;99.90;;;;;;5057746;28;20114;-63
2023/08/11 06:11:12;;;;;;;9.27;8.00;;;14.30;99.90;;;;;;5067919;28;20136;-64
2023/08/11 06:13:40;;;;;;;10.23;8.32;;;14.30;99.90;;;;;;5063898;28;20044;-62
2023/08/11 06:16:12;;;;;;;9.25;8.38;;;14.40;99.90;;;;;;5068540;28;20052;-62
2023/08/11 06:18:44;;;;;;;9.70;8.73;;;14.40;99.90;;;;;;5069371;28;20040;-62
2023/08/11 06:21:11;;;;;;;10.55;9.55;;;14.50;99.90;;;;;;5069727;28;20048;-62
2023/08/11 06:23:43;;;;;;;10.20;9.20;;;14.50;99.90;;;;;;5034987;28;20048;-63
2023/08/11 06:26:11;;;;;;;11.18;9.02;;;14.60;99.90;;;;;;5068945;28;20515;-62
2023/08/11 06:28:43;;;;;;;12.77;11.40;;;14.60;99.90;;;;;;5070052;28;20041;-63
2023/08/11 06:31:10;;;;;;;18.80;15.82;;;14.70;99.90;;;;;;5069187;28;20052;-62
2023/08/11 06:33:42;;;;;;;20.15;17.63;;;14.80;99.90;;;;;;5045938;28;20112;-62
2023/08/11 06:36:14;;;;;;;19.17;16.35;;;14.80;99.90;;;;;;5053583;28;20045;-62
2023/08/11 06:38:46;;;;;;;16.40;14.25;;;14.90;99.90;;;;;;5065953;28;20121;-62
2023/08/11 06:41:18;;;;;;;12.30;10.77;;;15.00;99.90;;;;;;5068349;28;20040;-62
2023/08/11 06:43:50;;;;;;;10.60;9.60;;;15.00;99.90;;;;;;5048398;28;20041;-64
2023/08/11 06:46:22;;;;;;;12.07;9.68;;;15.10;99.90;;;;;;5068472;28;20392;-65
2023/08/11 06:48:49;;;;;;;11.43;9.07;;;15.20;99.90;;;;;;5070071;28;20131;-63
2023/08/11 06:51:16;;;;;;;9.40;8.05;;;15.30;99.90;;;;;;5053201;28;20702;-64
2023/08/11 06:53:48;;;;;;;8.38;7.40;;;15.40;99.90;;;;;;5064682;28;20766;-63
2023/08/11 06:56:20;;;;;;;8.40;7.28;;;15.50;99.90;;;;;;5065140;28;20076;-62
2023/08/11 06:58:52;;;;;;;7.95;7.18;;;15.60;99.90;;;;;;5067865;28;20043;-62
2023/08/11 07:01:24;;;;;;;9.15;8.25;;;15.60;99.90;;;;;;5049852;28;20033;-62
2023/08/11 07:03:55;;;;;;;9.27;7.65;;;15.70;99.90;;;;;;5062711;28;20036;-62
2023/08/11 07:06:27;;;;;;;8.18;7.38;;;15.80;99.90;;;;;;5050285;28;20385;-62
2023/08/11 07:08:59;;;;;;;9.57;8.50;;;15.90;99.90;;;;;;5050131;28;20055;-62
2023/08/11 07:11:31;;;;;;;8.93;7.70;;;16.00;99.90;;;;;;5066919;28;20645;-62
2023/08/11 07:14:03;;;;;;;8.07;7.20;;;16.10;99.90;;;;;;5049436;28;20041;-62
2023/08/11 07:16:34;;;;;;;8.43;7.63;;;16.20;99.90;;;;;;5068512;28;20535;-63
2023/08/11 07:19:06;;;;;;;26.02;23.52;;;16.30;99.90;;;;;;5059257;28;20048;-62
2023/08/11 07:21:33;;;;;;;9.88;8.30;;;16.40;99.90;;;;;;5052581;28;20424;-62
2023/08/11 07:24:05;;;;;;;11.60;8.57;;;16.60;99.90;;;;;;5063842;28;20041;-62
2023/08/11 07:26:37;;;;;;;9.00;8.10;;;16.70;99.90;;;;;;5064404;28;20040;-62
2023/08/11 07:29:10;;;;;;;8.68;7.63;;;16.80;99.90;;;;;;5060199;28;20148;-62
2023/08/11 07:31:42;;;;;;;8.05;7.18;;;16.90;99.90;;;;;;5051385;28;20043;-62
2023/08/11 07:34:14;;;;;;;8.38;7.28;;;17.00;99.90;;;;;;5066268;28;20055;-62
2023/08/11 07:36:43;;;;;;;8.48;7.65;;;17.20;99.90;;;;;;5069912;28;20128;-62
2023/08/11 07:39:14;;;;;;;;;;;17.20;99.90;;;;;;5072012;28;20041;-62
2023/08/11 07:41:46;;;;;;;10.55;8.00;;;17.40;99.90;;;;;;5073910;28;19935;-62
2023/08/11 07:44:19;;;;;;;8.32;7.53;;;17.50;99.90;;;;;;5072424;28;20052;-62
2023/08/11 07:46:51;;;;;;;7.22;6.53;;;17.60;99.90;;;;;;5072616;28;20058;-62
2023/08/11 07:49:24;;;;;;;8.20;7.40;;;17.70;99.90;;;;;;5070728;28;20501;-62
2023/08/11 07:51:51;;;;;;;9.48;7.88;;;17.80;99.90;;;;;;5072916;28;20132;-62
2023/08/11 07:54:24;;;;;;;8.18;7.25;;;18.00;99.90;;;;;;5056550;28;20040;-62
2023/08/11 07:56:55;;;;;;;8.00;7.20;;;18.10;99.90;;;;;;5068722;28;20045;-62
2023/08/11 07:59:27;;;;;;;8.38;7.47;;;18.20;99.90;;;;;;5047010;28;20041;-62
2023/08/11 08:01:59;;;;;;;8.25;7.07;;;18.30;99.90;;;;;;5070229;28;20051;-62
2023/08/11 08:04:31;;;;;;;7.43;6.72;;;18.50;99.90;;;;;;5053129;28;20575;-63
2023/08/11 08:07:03;;;;;;;7.85;7.13;;;18.60;99.90;;;;;;5053873;28;20040;-62
2023/08/11 08:09:34;;;;;;;8.63;7.72;;;18.70;99.90;;;;;;5073032;28;20508;-63
2023/08/11 08:12:06;;;;;;;7.88;7.15;;;18.90;99.90;;;;;;5072130;28;20119;-62
2023/08/11 08:14:38;;;;;;;7.53;6.88;;;19.10;99.90;;;;;;5070563;28;20124;-62
2023/08/11 08:17:10;;;;;;;7.35;6.65;;;19.20;99.90;;;;;;5072430;28;20479;-62
2023/08/11 08:19:42;;;;;;;8.20;7.40;;;19.30;99.90;;;;;;5059569;28;20047;-63
2023/08/11 08:22:14;;;;;;;8.45;7.10;;;19.50;99.90;;;;;;5066391;28;20436;-62
2023/08/11 08:24:47;;;;;;;7.97;7.18;;;19.60;99.90;;;;;;5070181;28;20039;-62
2023/08/11 08:27:24;;;;;;;7.97;7.15;;;19.80;99.90;;;;;;5071572;28;20078;-63
2023/08/11 08:29:55;;;;;;;8.55;7.65;;;19.90;99.90;;;;;;5072379;28;20047;-63
2023/08/11 08:32:29;;;;;;;8.95;6.65;;;20.00;99.90;;;;;;5055924;28;20064;-62
2023/08/11 08:35:00;;;;;;;8.25;6.72;;;20.20;99.90;;;;;;5072053;28;20044;-63
2023/08/11 08:37:28;;;;;;;6.53;5.93;;;20.30;99.90;;;;;;5072001;28;20036;-62
2023/08/11 08:40:00;;;;;;;7.43;6.72;;;20.40;99.90;;;;;;5065693;28;20139;-62
2023/08/11 08:42:29;;;;;;;7.10;6.40;;;20.50;99.90;;;;;;5069346;28;20087;-62
2023/08/11 08:45:01;;;;;;;8.68;6.93;;;20.70;99.90;;;;;;5068225;28;20044;-63
2023/08/11 08:47:35;;;;;;;8.23;6.68;;;20.80;99.90;;;;;;5053636;28;20045;-62
2023/08/11 08:50:08;;;;;;;8.52;6.50;;;21.00;99.90;;;;;;5047939;28;20419;-63
2023/08/11 08:52:41;;;;;;;9.55;6.32;;;21.10;99.90;;;;;;5035588;28;20090;-63
2023/08/11 08:55:13;;;;;;;6.07;5.47;;;21.20;99.90;;;;;;5068762;28;20079;-63
2023/08/11 08:57:46;;;;;;;6.05;5.45;;;21.40;99.90;;;;;;5069615;28;20120;-62
2023/08/11 09:00:19;;;;;;;7.18;6.47;;;21.50;99.90;;;;;;5071423;28;20044;-62
2023/08/11 09:02:54;;;;;;;6.90;6.07;;;21.60;99.90;;;;;;5070951;28;20047;-63
2023/08/11 09:05:26;;;;;;;6.93;5.30;;;21.70;99.90;;;;;;5065144;28;20041;-63
2023/08/11 09:07:58;;;;;;;9.73;5.83;;;21.90;99.90;;;;;;5065285;28;20032;-62
2023/08/11 09:10:31;;;;;;;6.93;5.90;;;22.00;99.90;;;;;;5038708;28;20282;-63
2023/08/11 09:13:04;;;;;;;6.25;5.65;;;22.10;99.90;;;;;;5069885;28;20053;-62
2023/08/11 09:15:35;;;;;;;7.82;5.43;;;22.20;99.90;;;;;;5050072;28;20040;-63
2023/08/11 09:18:07;;;;;;;5.55;4.97;;;22.30;99.90;;;;;;5066141;28;20036;-63
2023/08/11 09:20:39;;;;;;;5.93;5.32;;;22.40;99.90;;;;;;5068952;28;20041;-62
2023/08/11 09:23:06;;;;;;;5.30;4.80;;;22.40;99.90;;;;;;5070457;28;20079;-62
2023/08/11 09:25:33;;;;;;;6.15;5.10;;;22.50;99.90;;;;;;5071540;28;20032;-62
2023/08/11 09:28:05;;;;;;;6.68;4.80;;;22.60;99.90;;;;;;5069907;28;20405;-62
2023/08/11 09:30:38;;;;;;;7.50;5.43;;;22.70;99.90;;;;;;5064760;28;20036;-62
2023/08/11 09:33:08;;;;;;;6.10;5.50;;;22.90;99.90;;;;;;5066848;28;20120;-62
2023/08/11 09:35:35;;;;;;;5.20;4.72;;;22.90;99.90;;;;;;5070487;28;20064;-62
2023/08/11 09:38:03;;;;;;;5.60;4.75;;;23.00;99.90;;;;;;5069601;28;20045;-62
2023/08/11 09:40:35;;;;;;;6.67;5.10;;;23.10;99.90;;;;;;5050764;28;20416;-62
2023/08/11 09:43:07;;;;;;;6.10;5.50;;;23.20;99.90;;;;;;5068663;28;20047;-62
2023/08/11 09:45:38;;;;;;;4.53;4.13;;;23.30;99.90;;;;;;5069864;28;20049;-62
2023/08/11 09:48:10;;;;;;;4.85;4.38;;;23.50;99.90;;;;;;5058389;28;20049;-62
2023/08/11 09:50:43;;;;;;;4.40;4.05;;;23.50;99.90;;;;;;5070997;28;20058;-62
2023/08/11 09:53:16;;;;;;;4.40;3.92;;;23.60;99.90;;;;;;5066305;28;20048;-62
2023/08/11 09:55:46;;;;;;;6.78;4.50;;;23.70;99.90;;;;;;5066838;28;20060;-62
2023/08/11 09:58:21;;;;;;;5.72;4.85;;;23.80;99.90;;;;;;5063871;28;20151;-62
2023/08/11 10:00:54;;;;;;;5.43;4.93;;;23.90;99.90;;;;;;5049352;28;20537;-62
2023/08/11 10:03:32;;;;;;;6.65;4.10;;;24.00;99.90;;;;;;5067262;28;20601;-62
2023/08/11 10:06:02;;;;;;;6.25;4.50;;;24.10;99.90;;;;;;5056364;28;20101;-62
2023/08/11 10:08:35;;;;;;;6.20;4.10;;;24.20;99.90;;;;;;5066487;28;20405;-62
2023/08/11 10:11:08;;;;;;;4.40;4.00;;;24.30;99.90;;;;;;5069755;28;20401;-62
2023/08/11 10:13:41;;;;;;;4.30;3.90;;;24.30;99.90;;;;;;5065075;28;20044;-62
2023/08/11 10:16:14;;;;;;;5.00;4.45;;;24.40;99.90;;;;;;5070335;28;20039;-62
2023/08/11 10:18:43;;;;;;;4.28;3.67;;;24.40;99.90;;;;;;5069869;28;20120;-62
2023/08/11 10:21:15;;;;;;;7.63;4.20;;;24.50;99.90;;;;;;5067795;28;20041;-62
2023/08/11 10:23:48;;;;;;;6.28;4.20;;;24.60;99.90;;;;;;5051321;28;20039;-62
2023/08/11 10:26:20;;;;;;;4.05;3.65;;;24.70;99.90;;;;;;5069093;28;20045;-62
2023/08/11 10:28:52;;;;;;;5.40;4.00;;;24.80;99.90;;;;;;5069511;28;20052;-62
2023/08/11 10:31:25;;;;;;;4.80;4.30;;;24.90;99.90;;;;;;5051903;28;20040;-62
2023/08/11 10:33:58;;;;;;;4.80;3.37;;;25.00;99.90;;;;;;5065521;28;20432;-62
2023/08/11 10:36:32;;;;;;;4.30;3.83;;;25.10;99.90;;;;;;5068175;28;20091;-62
2023/08/11 10:39:06;;;;;;;5.28;3.83;;;25.20;99.90;;;;;;5062224;28;20044;-62
2023/08/11 10:41:44;;;;;;;6.00;3.80;;;25.20;99.90;;;;;;5068172;28;20037;-62
2023/08/11 10:44:26;;;;;;;3.80;3.40;;;25.40;99.90;;;;;;5048649;28;20040;-62
2023/08/11 10:47:02;;;;;;;5.03;4.40;;;25.50;99.90;;;;;;5051516;28;20045;-62
2023/08/11 10:49:41;;;;;;;5.80;4.10;;;25.60;99.90;;;;;;5068075;28;20135;-63
2023/08/11 10:52:13;;;;;;;4.20;3.80;;;25.70;99.90;;;;;;5068058;28;20045;-62
2023/08/11 10:54:51;;;;;;;4.70;3.72;;;25.80;99.90;;;;;;5068218;28;20051;-62
2023/08/11 10:57:23;;;;;;;5.80;4.03;;;25.90;99.90;;;;;;5064106;28;20044;-62
2023/08/11 10:59:55;;;;;;;3.73;3.43;;;26.10;99.90;;;;;;5069461;28;20055;-62
2023/08/11 11:02:26;;;;;;;3.83;3.53;;;26.10;99.90;;;;;;5068353;28;20310;-62
2023/08/11 11:04:58;;;;;;;4.95;3.75;;;26.10;99.90;;;;;;5069317;28;20055;-62
2023/08/11 11:07:25;;;;;;;5.93;4.15;;;26.20;99.90;;;;;;5069118;28;20036;-62
2023/08/11 11:09:58;;;;;;;5.70;4.18;;;26.10;99.90;;;;;;5066512;28;20120;-62
2023/08/11 11:12:31;;;;;;;4.00;3.63;;;26.10;99.90;;;;;;5057808;28;20067;-62
2023/08/11 11:15:03;;;;;;;6.15;4.30;;;26.10;99.90;;;;;;5069900;28;20106;-62
2023/08/11 11:17:37;;;;;;;4.10;3.70;;;26.20;99.90;;;;;;5065067;28;20033;-62
2023/08/11 11:20:09;;;;;;;3.78;3.45;;;26.30;99.90;;;;;;5070686;28;20238;-62
2023/08/11 11:22:48;;;;;;;4.63;3.88;;;26.30;99.90;;;;;;5039293;28;20047;-62
2023/08/11 11:25:21;;;;;;;4.03;3.63;;;26.40;99.90;;;;;;5054525;28;20522;-62
2023/08/11 11:27:52;;;;;;;4.30;3.90;;;26.50;99.90;;;;;;5052152;28;20050;-62
2023/08/11 11:30:24;;;;;;;5.15;3.85;;;26.60;99.90;;;;;;5073101;28;20672;-62
2023/08/11 11:32:58;;;;;;;4.32;4.03;;;26.60;99.90;;;;;;5072604;28;20041;-62
2023/08/11 11:35:29;;;;;;;3.80;3.40;;;26.70;99.90;;;;;;5071191;28;20052;-63
2023/08/11 11:38:01;;;;;;;4.13;3.72;;;26.80;99.90;;;;;;5068587;28;20040;-62
2023/08/11 11:40:29;;;;;;;298.60;145.60;;;26.90;99.90;;;;;;5072778;28;20064;-62
2023/08/11 11:43:01;;;;;;;10.30;7.60;;;27.00;99.90;;;;;;5070875;28;20041;-62
2023/08/11 11:45:33;;;;;;;5.82;3.85;;;27.00;99.90;;;;;;5072165;28;20035;-62
2023/08/11 11:48:06;;;;;;;6.15;4.00;;;27.00;99.90;;;;;;5053240;28;20040;-63
2023/08/11 11:50:34;;;;;;;4.57;3.60;;;27.10;99.90;;;;;;5072137;28;20456;-63
2023/08/11 11:53:06;;;;;;;;;;;27.10;99.90;;;;;;5052059;28;20454;-63
2023/08/11 11:55:47;;;;;;;5.07;3.38;;;27.10;99.90;;;;;;5069276;28;20323;-63
2023/08/11 11:58:21;;;;;;;3.83;3.45;;;27.10;99.90;;;;;;5073749;28;20036;-63
2023/08/11 12:00:53;;;;;;;4.07;3.65;;;27.20;99.90;;;;;;5056157;28;20048;-63
2023/08/11 12:03:25;;;;;;;4.30;3.90;;;27.20;99.90;;;;;;5070670;28;20033;-63
2023/08/11 12:05:57;;;;;;;6.93;3.75;;;27.10;99.90;;;;;;5066707;28;20072;-63
2023/08/11 12:08:24;;;;;;;3.80;3.50;;;27.00;99.90;;;;;;5055257;28;20139;-63
2023/08/11 12:10:56;;;;;;;6.80;4.30;;;27.10;99.90;;;;;;5073525;28;20130;-63
2023/08/11 12:13:32;;;;;;;4.87;3.70;;;27.20;99.90;;;;;;5055717;28;20059;-63
2023/08/11 12:16:07;;;;;;;4.97;3.15;;;27.30;99.90;;;;;;5051057;28;20044;-63
2023/08/11 12:18:39;;;;;;;7.50;3.60;;;27.40;99.90;;;;;;5070321;28;20559;-63
2023/08/11 12:21:11;;;;;;;4.38;3.22;;;27.60;99.90;;;;;;5071836;28;20037;-63
2023/08/11 12:23:43;;;;;;;4.22;3.42;;;27.60;99.90;;;;;;5070399;28;20061;-63
2023/08/11 12:26:15;;;;;;;7.13;3.65;;;27.70;99.90;;;;;;5056812;28;20064;-63
2023/08/11 12:28:47;;;;;;;4.70;3.55;;;27.80;99.90;;;;;;5049043;28;20111;-63
2023/08/11 12:31:19;;;;;;;3.42;3.13;;;27.80;99.90;;;;;;5070632;28;20044;-63
2023/08/11 12:33:46;;;;;;;4.97;4.10;;;28.00;99.90;;;;;;5070407;28;20583;-63
2023/08/11 12:36:18;;;;;;;3.88;3.10;;;27.90;99.90;;;;;;5073005;28;20072;-63
2023/08/11 12:38:45;;;;;;;4.82;3.78;;;28.10;99.90;;;;;;5073005;28;20064;-63
2023/08/11 12:41:18;;;;;;;3.92;3.30;;;28.20;99.90;;;;;;5055523;28;20037;-63
2023/08/11 12:43:50;;;;;;;5.15;3.33;;;28.30;99.90;;;;;;5073367;28;20064;-63
2023/08/11 12:46:22;;;;;;;3.35;3.05;;;28.40;99.90;;;;;;5072235;28;20116;-63
2023/08/11 12:48:54;;;;;;;4.13;3.30;;;28.50;99.90;;;;;;5068869;28;20098;-63
2023/08/11 12:51:26;;;;;;;4.00;3.45;;;28.60;99.90;;;;;;5052967;28;20053;-63
2023/08/11 12:53:58;;;;;;;3.60;3.30;;;28.60;99.90;;;;;;5055015;28;20040;-64
2023/08/11 12:56:25;;;;;;;6.45;3.15;;;28.70;99.90;;;;;;5064267;28;20476;-63
2023/08/11 12:58:57;;;;;;;4.32;3.92;;;28.80;99.90;;;;;;5067553;28;20040;-64
2023/08/11 13:01:29;;;;;;;4.18;3.22;;;28.80;99.90;;;;;;5069004;28;20052;-63
2023/08/11 13:04:02;;;;;;;4.38;3.17;;;28.80;99.90;;;;;;5054883;28;20574;-63
2023/08/11 13:06:34;;;;;;;4.13;3.22;;;28.70;99.90;;;;;;5067300;28;20050;-63
2023/08/11 13:09:02;;;;;;;5.28;3.42;;;28.70;99.90;;;;;;5071501;28;20036;-63
2023/08/11 13:11:30;;;;;;;2.95;2.75;;;28.80;99.90;;;;;;5055594;28;20040;-63
2023/08/11 13:14:02;;;;;;;3.30;3.00;;;28.70;99.90;;;;;;5071138;28;20681;-63